Have a Safe July 4th! 

Flight Track Log - Related Links

Times and Time Zones

All times are in EDT time to prevent confusion due to time zone crossing. See the LBQ792 flight status page for this flight to view local times or setup timezone preferences in your user account.

Time Position Orientation Groundspeed Altitude Reporting Facility
EDT Latitude Longitude Course Direction KTS MPH feet Rate Location/Type
Fri 09:19:00 PM 42.3781 -76.6977 30° Northeast  Level FlightAware Approximate
Fri 09:20:00 PM 42.4165 -76.6671 30° Northeast  Level FlightAware Approximate
Fri 09:20:54 PM 42.5561 -76.5303 31° Northeast 240 276 7,100  Level Boston Center
Fri 09:21:00 PM 42.4548 -76.6365 30° Northeast  Level FlightAware Approximate
Fri 09:21:24 PM 42.5839 -76.5125 25° Northeast 239 275 7,100  Level Boston Center
Fri 09:22:00 PM 42.4932 -76.6059 31° Northeast  Level FlightAware Approximate
Fri 09:22:25 PM 42.6397 -76.4653 32° Northeast 238 274 7,100  Level Boston Center
Fri 09:23:00 PM 42.5316 -76.5752 31° Northeast  Level FlightAware Approximate
Fri 09:23:32 PM 42.7061 -76.4161 29° Northeast 241 277 6,900  Level Boston Center
Fri 09:24:00 PM 42.5699 -76.5444 31° Northeast  Level FlightAware Approximate
Fri 09:24:32 PM 42.7703 -76.3692 28° Northeast 255 293 5,900  Level Boston Center
Fri 09:25:00 PM 42.6082 -76.5137 31° Northeast  Level FlightAware Approximate
Fri 09:25:33 PM 42.8242 -76.3131 37° Northeast 252 290 4,900  Level Boston Center
Fri 09:26:00 PM 42.6466 -76.4828 31° Northeast  Level FlightAware Approximate
Fri 09:26:33 PM 42.8642 -76.2392 54° Northeast 244 281 4,000  Level Boston Center
Fri 09:27:28 PM 42.8997 -76.1761 52° Northeast 221 254 4,000  Level Boston Center
Fri 09:28:22 PM 42.9331 -76.1158 53° Northeast 207 238 4,000  Level Boston Center
Fri 09:29:23 PM 42.9822 -76.0789 29° Northeast 221 254 4,000 -492 Level Boston Center
Fri 09:30:24 PM 43.0447 -76.0769 North 222 255 3,000 -1,190 Descending Boston Center
Fri 09:31:24 PM 43.0925 -76.0797 358° North 133 153 1,600 -1,400 Descending Boston Center
Fri 09:33:00 PM 43.1000 -76.1000 26° Northeast  Level FlightAware Approximate
Fri 09:40:00 PM 43.1112 -76.1063 26° Northeast  Level Estimated
Fri 09:41:00 PM 43.1112 -76.1063 26° Northeast  Level Estimated
Fri 09:42:00 PM 43.1112 -76.1063 26° Northeast  Level Estimated
Fri 09:43:00 PM 43.1112 -76.1063 26° Northeast  Level Estimated
Fri 09:44:00 PM 43.1112 -76.1063 26° Northeast  Level Estimated

Login

Don't have an account? Register now (free) for customized features, flight alerts, and more!